sensor_id;sensor_type;location;lat;lon;timestamp;pressure;altitude;pressure_sealevel;temperature;humidity
20037;BME280;10179;42.640;23.312;2023-02-13T00:01:00;95311.69;;;3.42;50.18
20037;BME280;10179;42.640;23.312;2023-02-13T00:03:26;95364.66;;;3.78;49.84
20037;BME280;10179;42.640;23.312;2023-02-13T00:05:51;95332.16;;;3.54;49.95
20037;BME280;10179;42.640;23.312;2023-02-13T00:08:17;95373.84;;;3.72;49.98
20037;BME280;10179;42.640;23.312;2023-02-13T00:10:42;95373.97;;;3.71;50.29
20037;BME280;10179;42.640;23.312;2023-02-13T00:13:07;95364.00;;;3.66;50.43
20037;BME280;10179;42.640;23.312;2023-02-13T00:15:33;95376.56;;;3.71;50.49
20037;BME280;10179;42.640;23.312;2023-02-13T00:17:58;95294.38;;;3.13;50.37
20037;BME280;10179;42.640;23.312;2023-02-13T00:20:24;95332.03;;;3.46;50.19
20037;BME280;10179;42.640;23.312;2023-02-13T00:22:49;95379.19;;;3.71;50.25
20037;BME280;10179;42.640;23.312;2023-02-13T00:25:15;95367.97;;;3.61;50.23
20037;BME280;10179;42.640;23.312;2023-02-13T00:27:40;95375.38;;;3.65;50.29
20037;BME280;10179;42.640;23.312;2023-02-13T00:30:06;95349.69;;;3.43;49.94
20037;BME280;10179;42.640;23.312;2023-02-13T00:32:31;95341.50;;;3.28;50.40
20037;BME280;10179;42.640;23.312;2023-02-13T00:34:57;95376.75;;;3.40;50.66
20037;BME280;10179;42.640;23.312;2023-02-13T00:37:23;95374.16;;;3.40;50.44
20037;BME280;10179;42.640;23.312;2023-02-13T00:39:49;95391.13;;;3.44;50.34
20037;BME280;10179;42.640;23.312;2023-02-13T00:42:14;95391.13;;;3.44;50.54
20037;BME280;10179;42.640;23.312;2023-02-13T00:44:39;95384.13;;;3.45;50.94
20037;BME280;10179;42.640;23.312;2023-02-13T00:47:05;95384.00;;;3.46;51.17
20037;BME280;10179;42.640;23.312;2023-02-13T00:49:30;95388.22;;;3.47;50.96
20037;BME280;10179;42.640;23.312;2023-02-13T00:51:56;95391.78;;;3.46;51.08
20037;BME280;10179;42.640;23.312;2023-02-13T00:54:21;95402.44;;;3.43;50.58
20037;BME280;10179;42.640;23.312;2023-02-13T00:56:47;95396.59;;;3.41;50.82
20037;BME280;10179;42.640;23.312;2023-02-13T00:59:13;95388.09;;;3.39;51.03
20037;BME280;10179;42.640;23.312;2023-02-13T01:01:38;95331.13;;;2.99;50.96
20037;BME280;10179;42.640;23.312;2023-02-13T01:04:04;95397.81;;;3.37;50.76
20037;BME280;10179;42.640;23.312;2023-02-13T01:06:29;95387.44;;;3.37;50.79
20037;BME280;10179;42.640;23.312;2023-02-13T01:08:54;95388.63;;;3.33;50.66
20037;BME280;10179;42.640;23.312;2023-02-13T01:11:20;95413.94;;;3.31;50.96
20037;BME280;10179;42.640;23.312;2023-02-13T01:13:45;95398.34;;;3.31;51.09
20037;BME280;10179;42.640;23.312;2023-02-13T01:16:11;95393.81;;;3.33;51.14
20037;BME280;10179;42.640;23.312;2023-02-13T01:18:37;95385.38;;;3.31;51.04
20037;BME280;10179;42.640;23.312;2023-02-13T01:21:05;95318.03;;;2.81;50.77
20037;BME280;10179;42.640;23.312;2023-02-13T01:23:33;95384.97;;;3.16;51.16
20037;BME280;10179;42.640;23.312;2023-02-13T01:25:59;95387.69;;;3.15;51.43
20037;BME280;10179;42.640;23.312;2023-02-13T01:28:25;95400.25;;;3.19;51.28
20037;BME280;10179;42.640;23.312;2023-02-13T01:30:57;95293.53;;;2.54;51.54
20037;BME280;10179;42.640;23.312;2023-02-13T01:33:23;95392.88;;;3.15;51.79
20037;BME280;10179;42.640;23.312;2023-02-13T01:35:49;95390.97;;;3.17;51.76
20037;BME280;10179;42.640;23.312;2023-02-13T01:38:14;95409.81;;;3.28;51.63
20037;BME280;10179;42.640;23.312;2023-02-13T01:40:52;95407.25;;;3.38;51.54
20037;BME280;10179;42.640;23.312;2023-02-13T01:43:19;95409.28;;;3.34;51.70
20037;BME280;10179;42.640;23.312;2023-02-13T01:45:50;95363.91;;;3.09;51.38
20037;BME280;10179;42.640;23.312;2023-02-13T01:48:21;95334.56;;;2.99;51.50
20037;BME280;10179;42.640;23.312;2023-02-13T01:50:52;95335.47;;;2.98;51.74
20037;BME280;10179;42.640;23.312;2023-02-13T01:55:55;95409.16;;;3.55;51.38
20037;BME280;10179;42.640;23.312;2023-02-13T01:58:24;95409.00;;;3.57;51.89
20037;BME280;10179;42.640;23.312;2023-02-13T02:00:51;95406.81;;;3.52;51.55
20037;BME280;10179;42.640;23.312;2023-02-13T02:06:03;95355.16;;;3.30;51.93
20037;BME280;10179;42.640;23.312;2023-02-13T02:08:31;95414.03;;;3.68;52.32
20037;BME280;10179;42.640;23.312;2023-02-13T02:11:05;95391.91;;;3.64;52.48
20037;BME280;10179;42.640;23.312;2023-02-13T02:13:31;95398.88;;;3.73;52.49
20037;BME280;10179;42.640;23.312;2023-02-13T02:15:57;95402.69;;;3.79;52.33
20037;BME280;10179;42.640;23.312;2023-02-13T02:18:23;95416.34;;;3.91;52.36
20037;BME280;10179;42.640;23.312;2023-02-13T02:33:58;95398.78;;;4.12;52.69
20037;BME280;10179;42.640;23.312;2023-02-13T02:42:09;95406.38;;;4.33;52.76
20037;BME280;10179;42.640;23.312;2023-02-13T02:50:32;95380.34;;;4.05;52.81
20037;BME280;10179;42.640;23.312;2023-02-13T02:53:03;95255.88;;;2.99;53.06
20037;BME280;10179;42.640;23.312;2023-02-13T03:01:18;95386.50;;;4.04;53.03
20037;BME280;10179;42.640;23.312;2023-02-13T03:04:12;95443.31;;;4.37;53.36
20037;BME280;10179;42.640;23.312;2023-02-13T03:07:03;95430.84;;;4.40;53.37
20037;BME280;10179;42.640;23.312;2023-02-13T03:09:36;95434.16;;;4.42;53.09
20037;BME280;10179;42.640;23.312;2023-02-13T03:12:23;95432.50;;;4.41;53.09
20037;BME280;10179;42.640;23.312;2023-02-13T03:15:08;95392.63;;;4.13;53.21
20037;BME280;10179;42.640;23.312;2023-02-13T03:17:34;95429.34;;;4.38;52.99
20037;BME280;10179;42.640;23.312;2023-02-13T03:20:26;95429.06;;;4.41;53.09
20037;BME280;10179;42.640;23.312;2023-02-13T03:23:59;95431.94;;;4.47;53.11
20037;BME280;10179;42.640;23.312;2023-02-13T03:26:39;95426.34;;;4.42;53.06
20037;BME280;10179;42.640;23.312;2023-02-13T03:29:43;95429.31;;;4.47;52.92
20037;BME280;10179;42.640;23.312;2023-02-13T03:38:15;95413.78;;;4.28;53.24
20037;BME280;10179;42.640;23.312;2023-02-13T03:40:48;95444.25;;;4.45;53.25
20037;BME280;10179;42.640;23.312;2023-02-13T03:43:41;95426.63;;;4.39;53.09
20037;BME280;10179;42.640;23.312;2023-02-13T03:46:10;95442.50;;;4.46;53.22
20037;BME280;10179;42.640;23.312;2023-02-13T03:48:38;95429.88;;;4.41;53.30
20037;BME280;10179;42.640;23.312;2023-02-13T03:51:51;95447.09;;;4.52;53.23
20037;BME280;10179;42.640;23.312;2023-02-13T03:54:40;95433.38;;;4.60;53.13
20037;BME280;10179;42.640;23.312;2023-02-13T03:57:26;95386.69;;;4.21;53.07
20037;BME280;10179;42.640;23.312;2023-02-13T04:00:14;95422.34;;;4.48;53.04
20037;BME280;10179;42.640;23.312;2023-02-13T04:02:53;95422.03;;;4.61;53.25
20037;BME280;10179;42.640;23.312;2023-02-13T04:05:25;95408.66;;;4.46;53.01
20037;BME280;10179;42.640;23.312;2023-02-13T04:07:53;95425.19;;;4.54;53.02
20037;BME280;10179;42.640;23.312;2023-02-13T04:10:19;95428.47;;;4.57;52.97
20037;BME280;10179;42.640;23.312;2023-02-13T04:15:17;95433.38;;;4.60;52.88
20037;BME280;10179;42.640;23.312;2023-02-13T04:20:32;95406.22;;;4.35;52.65
20037;BME280;10179;42.640;23.312;2023-02-13T04:23:04;95436.56;;;4.53;52.37
20037;BME280;10179;42.640;23.312;2023-02-13T04:25:30;95445.22;;;4.44;51.89
20037;BME280;10179;42.640;23.312;2023-02-13T04:27:56;95386.50;;;4.04;52.08
20037;BME280;10179;42.640;23.312;2023-02-13T04:30:21;95441.81;;;4.34;52.18
20037;BME280;10179;42.640;23.312;2023-02-13T04:32:47;95409.03;;;4.14;52.04
20037;BME280;10179;42.640;23.312;2023-02-13T04:35:12;95439.94;;;4.26;52.13
20037;BME280;10179;42.640;23.312;2023-02-13T04:37:38;95449.91;;;4.31;52.35
20037;BME280;10179;42.640;23.312;2023-02-13T04:40:04;95436.91;;;4.31;52.23
20037;BME280;10179;42.640;23.312;2023-02-13T04:42:30;95431.03;;;4.29;52.44
20037;BME280;10179;42.640;23.312;2023-02-13T04:44:55;95417.91;;;4.21;52.02
20037;BME280;10179;42.640;23.312;2023-02-13T04:47:21;95429.69;;;4.25;51.83
20037;BME280;10179;42.640;23.312;2023-02-13T04:49:46;95364.94;;;3.85;52.12
20037;BME280;10179;42.640;23.312;2023-02-13T04:52:12;95427.38;;;4.22;51.98
20037;BME280;10179;42.640;23.312;2023-02-13T04:54:39;95419.72;;;4.11;52.16
20037;BME280;10179;42.640;23.312;2023-02-13T04:57:04;95435.00;;;4.23;52.09
20037;BME280;10179;42.640;23.312;2023-02-13T04:59:30;95421.38;;;4.12;52.16
20037;BME280;10179;42.640;23.312;2023-02-13T05:01:55;95435.44;;;4.19;52.27
20037;BME280;10179;42.640;23.312;2023-02-13T05:04:23;95425.88;;;4.10;52.65
20037;BME280;10179;42.640;23.312;2023-02-13T05:06:49;95285.47;;;3.16;52.43
20037;BME280;10179;42.640;23.312;2023-02-13T05:09:15;95446.09;;;4.25;52.47
20037;BME280;10179;42.640;23.312;2023-02-13T05:11:40;95455.53;;;4.36;52.68
20037;BME280;10179;42.640;23.312;2023-02-13T05:14:05;95446.38;;;4.32;52.50
20037;BME280;10179;42.640;23.312;2023-02-13T05:16:31;95459.19;;;4.43;52.46
20037;BME280;10179;42.640;23.312;2023-02-13T05:18:57;95460.81;;;4.44;52.78
20037;BME280;10179;42.640;23.312;2023-02-13T05:21:22;95394.56;;;4.11;52.70
20037;BME280;10179;42.640;23.312;2023-02-13T05:24:06;95455.06;;;4.50;52.69
20037;BME280;10179;42.640;23.312;2023-02-13T05:26:31;95445.22;;;4.44;52.83
20037;BME280;10179;42.640;23.312;2023-02-13T05:28:56;95450.94;;;4.48;52.56
20037;BME280;10179;42.640;23.312;2023-02-13T05:31:41;95459.38;;;4.60;52.87
20037;BME280;10179;42.640;23.312;2023-02-13T05:34:06;95464.31;;;4.63;52.97
20037;BME280;10179;42.640;23.312;2023-02-13T05:36:31;95458.81;;;4.66;52.92
20037;BME280;10179;42.640;23.312;2023-02-13T05:38:57;95452.97;;;4.64;52.79
20037;BME280;10179;42.640;23.312;2023-02-13T05:41:22;95420.84;;;4.45;52.89
20037;BME280;10179;42.640;23.312;2023-02-13T05:43:47;95465.63;;;4.76;52.72
20037;BME280;10179;42.640;23.312;2023-02-13T05:46:14;95469.72;;;4.79;52.86
20037;BME280;10179;42.640;23.312;2023-02-13T05:48:39;95472.72;;;4.84;52.89
20037;BME280;10179;42.640;23.312;2023-02-13T05:51:05;95457.69;;;4.78;52.44
20037;BME280;10179;42.640;23.312;2023-02-13T05:53:30;95474.09;;;4.88;52.51
20037;BME280;10179;42.640;23.312;2023-02-13T05:56:00;95466.84;;;4.82;52.40
20037;BME280;10179;42.640;23.312;2023-02-13T05:58:25;95380.66;;;4.30;52.52
20037;BME280;10179;42.640;23.312;2023-02-13T06:00:57;95468.47;;;4.83;52.60
20037;BME280;10179;42.640;23.312;2023-02-13T06:03:24;95416.31;;;4.47;52.41
20037;BME280;10179;42.640;23.312;2023-02-13T06:05:50;95465.50;;;4.78;52.70
20037;BME280;10179;42.640;23.312;2023-02-13T06:08:16;95470.03;;;4.76;52.68
20037;BME280;10179;42.640;23.312;2023-02-13T06:10:41;95366.78;;;4.12;52.86
20037;BME280;10179;42.640;23.312;2023-02-13T06:13:07;95451.44;;;4.71;52.72
20037;BME280;10179;42.640;23.312;2023-02-13T06:15:32;95492.41;;;4.96;52.44
20037;BME280;10179;42.640;23.312;2023-02-13T06:17:58;95425.88;;;4.57;52.68
20037;BME280;10179;42.640;23.312;2023-02-13T06:20:23;95454.81;;;4.81;52.69
20037;BME280;10179;42.640;23.312;2023-02-13T06:22:49;95481.28;;;4.94;52.75
20037;BME280;10179;42.640;23.312;2023-02-13T06:25:17;95491.16;;;5.00;52.89
20037;BME280;10179;42.640;23.312;2023-02-13T06:27:42;95495.09;;;5.05;52.85
20037;BME280;10179;42.640;23.312;2023-02-13T06:30:08;95492.91;;;5.10;52.96
20037;BME280;10179;42.640;23.312;2023-02-13T06:32:34;95493.41;;;5.13;52.76
20037;BME280;10179;42.640;23.312;2023-02-13T06:34:59;95485.03;;;4.92;52.56
20037;BME280;10179;42.640;23.312;2023-02-13T06:37:25;95482.47;;;5.10;52.54
20037;BME280;10179;42.640;23.312;2023-02-13T06:39:50;95472.34;;;5.07;52.31
20037;BME280;10179;42.640;23.312;2023-02-13T06:42:16;95499.69;;;5.20;52.36
20037;BME280;10179;42.640;23.312;2023-02-13T06:44:42;95500.25;;;5.14;52.19
20037;BME280;10179;42.640;23.312;2023-02-13T06:47:08;95498.63;;;5.13;52.38
20037;BME280;10179;42.640;23.312;2023-02-13T06:49:33;95493.72;;;5.10;52.35
20037;BME280;10179;42.640;23.312;2023-02-13T06:51:58;95481.69;;;4.99;52.28
20037;BME280;10179;42.640;23.312;2023-02-13T06:54:24;95307.72;;;3.94;52.36
20037;BME280;10179;42.640;23.312;2023-02-13T06:56:49;95487.69;;;5.10;52.26
20037;BME280;10179;42.640;23.312;2023-02-13T06:59:15;95491.22;;;5.09;52.24
20037;BME280;10179;42.640;23.312;2023-02-13T07:01:40;95410.09;;;4.58;52.15
20037;BME280;10179;42.640;23.312;2023-02-13T07:04:05;95512.84;;;5.19;52.26
20037;BME280;10179;42.640;23.312;2023-02-13T07:06:31;95508.84;;;5.24;52.44
20037;BME280;10179;42.640;23.312;2023-02-13T07:08:56;95462.22;;;5.03;52.27
20037;BME280;10179;42.640;23.312;2023-02-13T07:11:23;95480.19;;;5.24;52.29
20037;BME280;10179;42.640;23.312;2023-02-13T07:13:49;95483.69;;;5.33;52.34
20037;BME280;10179;42.640;23.312;2023-02-13T07:16:15;95485.72;;;5.39;51.94
20037;BME280;10179;42.640;23.312;2023-02-13T07:18:40;95489.66;;;5.43;51.82
20037;BME280;10179;42.640;23.312;2023-02-13T07:21:06;95492.94;;;5.45;51.55
20037;BME280;10179;42.640;23.312;2023-02-13T07:23:32;95515.66;;;5.53;51.54
20037;BME280;10179;42.640;23.312;2023-02-13T07:25:58;95518.13;;;5.55;51.44
20037;BME280;10179;42.640;23.312;2023-02-13T07:28:24;95509.63;;;5.53;51.51
20037;BME280;10179;42.640;23.312;2023-02-13T07:30:50;95498.53;;;5.50;51.22
20037;BME280;10179;42.640;23.312;2023-02-13T07:33:15;95478.72;;;5.40;50.82
20037;BME280;10179;42.640;23.312;2023-02-13T07:35:48;95493.72;;;5.56;50.91
20037;BME280;10179;42.640;23.312;2023-02-13T07:38:15;95479.84;;;5.37;51.12
20037;BME280;10179;42.640;23.312;2023-02-13T07:40:40;95476.56;;;5.35;50.65
20037;BME280;10179;42.640;23.312;2023-02-13T07:43:06;95440.19;;;5.16;50.51
20037;BME280;10179;42.640;23.312;2023-02-13T07:45:31;95460.16;;;5.25;50.57
20037;BME280;10179;42.640;23.312;2023-02-13T07:47:57;95510.97;;;5.57;50.97
20037;BME280;10179;42.640;23.312;2023-02-13T07:50:24;95444.75;;;5.14;50.82
20037;BME280;10179;42.640;23.312;2023-02-13T07:52:58;95505.72;;;5.66;51.03
20037;BME280;10179;42.640;23.312;2023-02-13T07:55:23;95519.38;;;5.68;50.49
20037;BME280;10179;42.640;23.312;2023-02-13T07:57:49;95503.56;;;5.62;50.53
20037;BME280;10179;42.640;23.312;2023-02-13T08:00:16;95502.94;;;5.68;50.55
20037;BME280;10179;42.640;23.312;2023-02-13T08:02:42;95488.19;;;5.59;50.69
20037;BME280;10179;42.640;23.312;2023-02-13T08:05:07;95514.41;;;5.75;50.57
20037;BME280;10179;42.640;23.312;2023-02-13T08:07:33;95508.59;;;5.81;50.69
20037;BME280;10179;42.640;23.312;2023-02-13T08:09:59;95511.22;;;5.81;50.15
20037;BME280;10179;42.640;23.312;2023-02-13T08:12:43;95521.00;;;5.79;50.25
20037;BME280;10179;42.640;23.312;2023-02-13T08:15:11;95515.44;;;5.82;50.42
20037;BME280;10179;42.640;23.312;2023-02-13T08:17:37;95507.63;;;5.82;50.16
20037;BME280;10179;42.640;23.312;2023-02-13T08:20:03;95512.19;;;5.80;50.13
20037;BME280;10179;42.640;23.312;2023-02-13T08:22:29;95508.09;;;5.78;49.94
20037;BME280;10179;42.640;23.312;2023-02-13T08:24:54;95509.50;;;5.72;50.08
20037;BME280;10179;42.640;23.312;2023-02-13T08:27:20;95496.38;;;5.64;50.48
20037;BME280;10179;42.640;23.312;2023-02-13T08:29:48;95495.81;;;5.70;50.47
20037;BME280;10179;42.640;23.312;2023-02-13T08:32:13;95490.88;;;5.67;50.40
20037;BME280;10179;42.640;23.312;2023-02-13T08:34:39;95505.63;;;5.76;50.37
20037;BME280;10179;42.640;23.312;2023-02-13T08:37:04;95495.06;;;5.78;50.30
20037;BME280;10179;42.640;23.312;2023-02-13T08:39:30;95465.16;;;5.72;50.41
20037;BME280;10179;42.640;23.312;2023-02-13T08:41:55;95496.69;;;5.96;50.31
20037;BME280;10179;42.640;23.312;2023-02-13T08:44:20;95505.19;;;6.16;49.87
20037;BME280;10179;42.640;23.312;2023-02-13T08:46:46;95513.53;;;6.20;49.89
20037;BME280;10179;42.640;23.312;2023-02-13T08:49:11;95509.56;;;6.34;49.58
20037;BME280;10179;42.640;23.312;2023-02-13T08:51:36;95512.38;;;6.40;49.67
20037;BME280;10179;42.640;23.312;2023-02-13T08:54:02;95510.13;;;6.45;49.53
20037;BME280;10179;42.640;23.312;2023-02-13T08:56:27;95453.47;;;6.12;49.23
20037;BME280;10179;42.640;23.312;2023-02-13T08:58:53;95495.31;;;6.46;48.87
20037;BME280;10179;42.640;23.312;2023-02-13T09:01:19;95486.03;;;6.52;48.93
20037;BME280;10179;42.640;23.312;2023-02-13T09:03:44;95514.25;;;6.74;48.56
20037;BME280;10179;42.640;23.312;2023-02-13T09:06:10;95493.78;;;6.69;48.55
20037;BME280;10179;42.640;23.312;2023-02-13T09:08:35;95502.19;;;6.81;48.51
20037;BME280;10179;42.640;23.312;2023-02-13T09:11:03;95504.53;;;6.92;48.53
20037;BME280;10179;42.640;23.312;2023-02-13T09:13:31;95509.97;;;6.99;47.98
20037;BME280;10179;42.640;23.312;2023-02-13T09:16:02;95513.22;;;7.01;47.52
20037;BME280;10179;42.640;23.312;2023-02-13T09:18:28;95513.72;;;7.05;47.64
20037;BME280;10179;42.640;23.312;2023-02-13T09:21:01;95499.88;;;7.12;47.10
20037;BME280;10179;42.640;23.312;2023-02-13T09:23:30;95484.97;;;6.97;47.19
20037;BME280;10179;42.640;23.312;2023-02-13T09:26:04;95484.34;;;7.03;47.07
20037;BME280;10179;42.640;23.312;2023-02-13T09:28:32;95500.41;;;7.16;47.20
20037;BME280;10179;42.640;23.312;2023-02-13T09:30:57;95492.50;;;7.08;46.74
20037;BME280;10179;42.640;23.312;2023-02-13T09:33:23;95441.06;;;6.66;46.58
20037;BME280;10179;42.640;23.312;2023-02-13T09:35:49;95472.19;;;6.85;46.18
20037;BME280;10179;42.640;23.312;2023-02-13T09:38:14;95471.81;;;6.80;46.86
20037;BME280;10179;42.640;23.312;2023-02-13T09:40:47;95478.41;;;6.92;46.95
20037;BME280;10179;42.640;23.312;2023-02-13T09:43:45;95486.59;;;6.98;47.04
20037;BME280;10179;42.640;23.312;2023-02-13T09:46:20;95489.19;;;6.98;46.89
20037;BME280;10179;42.640;23.312;2023-02-13T09:48:50;95484.66;;;7.00;47.01
20037;BME280;10179;42.640;23.312;2023-02-13T09:51:19;95483.53;;;7.02;47.10
20037;BME280;10179;42.640;23.312;2023-02-13T09:53:52;95457.41;;;7.02;47.07
20037;BME280;10179;42.640;23.312;2023-02-13T09:56:23;95466.75;;;7.13;47.05
20037;BME280;10179;42.640;23.312;2023-02-13T09:59:02;95465.97;;;7.29;47.09
20037;BME280;10179;42.640;23.312;2023-02-13T10:01:47;95457.69;;;7.41;46.93
20037;BME280;10179;42.640;23.312;2023-02-13T10:06:45;95426.31;;;7.50;45.93
20037;BME280;10179;42.640;23.312;2023-02-13T10:17:33;95450.88;;;7.73;45.46
20037;BME280;10179;42.640;23.312;2023-02-13T10:20:31;95446.09;;;7.69;45.81
20037;BME280;10179;42.640;23.312;2023-02-13T10:23:15;95444.47;;;7.59;46.02
20037;BME280;10179;42.640;23.312;2023-02-13T10:25:51;95443.16;;;7.55;46.52
20037;BME280;10179;42.640;23.312;2023-02-13T10:28:28;95395.59;;;7.35;46.32
20037;BME280;10179;42.640;23.312;2023-02-13T10:31:02;95421.75;;;7.60;45.82
20037;BME280;10179;42.640;23.312;2023-02-13T10:33:29;95420.94;;;7.84;46.07
20037;BME280;10179;42.640;23.312;2023-02-13T10:38:44;95418.16;;;7.85;46.39
20037;BME280;10179;42.640;23.312;2023-02-13T10:41:49;95425.34;;;8.00;45.11
20037;BME280;10179;42.640;23.312;2023-02-13T10:49:36;95404.09;;;7.70;45.88
20037;BME280;10179;42.640;23.312;2023-02-13T10:55:14;95401.81;;;7.75;46.38
20037;BME280;10179;42.640;23.312;2023-02-13T11:00:24;95397.06;;;7.79;46.75
20037;BME280;10179;42.640;23.312;2023-02-13T11:02:51;95390.69;;;7.81;46.39
20037;BME280;10179;42.640;23.312;2023-02-13T11:05:21;95375.66;;;7.75;46.00
20037;BME280;10179;42.640;23.312;2023-02-13T11:07:48;95383.53;;;7.83;45.84
20037;BME280;10179;42.640;23.312;2023-02-13T11:10:17;95385.81;;;7.86;45.83
20037;BME280;10179;42.640;23.312;2023-02-13T11:12:44;95380.91;;;7.83;45.97
20037;BME280;10179;42.640;23.312;2023-02-13T11:15:28;95377.28;;;8.01;46.16
20037;BME280;10179;42.640;23.312;2023-02-13T11:17:59;95368.75;;;8.07;46.04
20037;BME280;10179;42.640;23.312;2023-02-13T11:23:23;95304.72;;;7.86;45.05
20037;BME280;10179;42.640;23.312;2023-02-13T11:28:26;95351.88;;;8.26;44.91
20037;BME280;10179;42.640;23.312;2023-02-13T11:33:35;95334.03;;;8.21;44.51
20037;BME280;10179;42.640;23.312;2023-02-13T11:36:09;95346.78;;;8.32;44.68
20037;BME280;10179;42.640;23.312;2023-02-13T11:38:37;95336.66;;;8.29;44.39
20037;BME280;10179;42.640;23.312;2023-02-13T11:41:09;95323.56;;;8.38;44.32
20037;BME280;10179;42.640;23.312;2023-02-13T11:43:48;95315.72;;;8.38;44.08
20037;BME280;10179;42.640;23.312;2023-02-13T11:46:20;95251.84;;;8.07;44.16
20037;BME280;10179;42.640;23.312;2023-02-13T11:53:59;95303.16;;;8.64;43.32
20037;BME280;10179;42.640;23.312;2023-02-13T11:56:25;95293.16;;;8.68;43.37
20037;BME280;10179;42.640;23.312;2023-02-13T11:59:00;95276.16;;;8.64;42.98
20037;BME280;10179;42.640;23.312;2023-02-13T12:01:26;95285.94;;;8.70;42.93
20037;BME280;10179;42.640;23.312;2023-02-13T12:04:16;95281.75;;;8.83;42.87
20037;BME280;10179;42.640;23.312;2023-02-13T12:07:02;95273.22;;;8.90;42.65
20037;BME280;10179;42.640;23.312;2023-02-13T12:09:29;95229.03;;;8.64;42.37
20037;BME280;10179;42.640;23.312;2023-02-13T12:12:00;95247.44;;;8.78;42.14
20037;BME280;10179;42.640;23.312;2023-02-13T12:14:36;95211.88;;;8.53;41.84
20037;BME280;10179;42.640;23.312;2023-02-13T12:17:05;95259.66;;;8.86;41.84
20037;BME280;10179;42.640;23.312;2023-02-13T12:19:38;95269.91;;;8.96;42.27
20037;BME280;10179;42.640;23.312;2023-02-13T12:47:21;95240.16;;;9.49;39.95
20037;BME280;10179;42.640;23.312;2023-02-13T12:58:44;95231.47;;;9.49;39.40
20037;BME280;10179;42.640;23.312;2023-02-13T13:01:23;95230.81;;;9.47;39.79
20037;BME280;10179;42.640;23.312;2023-02-13T13:04:01;95224.41;;;9.49;39.30
20037;BME280;10179;42.640;23.312;2023-02-13T13:06:36;95224.88;;;9.53;39.46
20037;BME280;10179;42.640;23.312;2023-02-13T13:12:02;95231.31;;;9.65;39.21
20037;BME280;10179;42.640;23.312;2023-02-13T13:28:18;95203.38;;;9.72;38.44
20037;BME280;10179;42.640;23.312;2023-02-13T13:30:46;95209.69;;;9.63;38.47
20037;BME280;10179;42.640;23.312;2023-02-13T13:33:18;95194.94;;;9.62;38.88
20037;BME280;10179;42.640;23.312;2023-02-13T13:35:54;95205.78;;;9.74;39.18
20037;BME280;10179;42.640;23.312;2023-02-13T13:41:22;95158.84;;;9.64;38.80
20037;BME280;10179;42.640;23.312;2023-02-13T13:49:36;95185.97;;;9.86;38.32
20037;BME280;10179;42.640;23.312;2023-02-13T13:54:44;95200.28;;;9.84;38.74
20037;BME280;10179;42.640;23.312;2023-02-13T13:57:16;95180.72;;;9.71;38.76
20037;BME280;10179;42.640;23.312;2023-02-13T14:07:33;95197.56;;;9.92;38.61
20037;BME280;10179;42.640;23.312;2023-02-13T14:09:59;95194.91;;;10.07;38.42
20037;BME280;10179;42.640;23.312;2023-02-13T14:14:53;95117.50;;;9.37;39.09
20037;BME280;10179;42.640;23.312;2023-02-13T14:20:32;95187.63;;;9.87;38.75
20037;BME280;10179;42.640;23.312;2023-02-13T14:23:16;95184.19;;;9.87;38.86
20037;BME280;10179;42.640;23.312;2023-02-13T14:25:43;95180.00;;;9.77;38.92
20037;BME280;10179;42.640;23.312;2023-02-13T14:28:25;95153.22;;;9.67;38.56
20037;BME280;10179;42.640;23.312;2023-02-13T14:31:04;95170.31;;;9.78;38.64
20037;BME280;10179;42.640;23.312;2023-02-13T14:33:31;95168.63;;;9.70;39.07
20037;BME280;10179;42.640;23.312;2023-02-13T14:36:03;95161.09;;;9.67;39.27
20037;BME280;10179;42.640;23.312;2023-02-13T14:38:30;95125.31;;;9.45;39.07
20037;BME280;10179;42.640;23.312;2023-02-13T14:40:56;95168.63;;;9.70;39.07
20037;BME280;10179;42.640;23.312;2023-02-13T14:43:32;95161.75;;;9.69;39.04
20037;BME280;10179;42.640;23.312;2023-02-13T14:49:03;95167.44;;;9.73;39.23
20037;BME280;10179;42.640;23.312;2023-02-13T14:51:46;95159.19;;;9.61;39.06
20037;BME280;10179;42.640;23.312;2023-02-13T14:57:16;95152.34;;;9.60;39.32
20037;BME280;10179;42.640;23.312;2023-02-13T14:59:47;95156.94;;;9.58;39.20
20037;BME280;10179;42.640;23.312;2023-02-13T15:02:25;95122.13;;;9.35;39.25
20037;BME280;10179;42.640;23.312;2023-02-13T15:07:51;95154.59;;;9.48;39.31
20037;BME280;10179;42.640;23.312;2023-02-13T15:12:59;95163.44;;;9.47;39.66
20037;BME280;10179;42.640;23.312;2023-02-13T15:15:28;95112.25;;;9.07;39.38
20037;BME280;10179;42.640;23.312;2023-02-13T15:18:01;95082.75;;;8.90;39.55
20037;BME280;10179;42.640;23.312;2023-02-13T15:20:33;95171.25;;;9.41;39.41
20037;BME280;10179;42.640;23.312;2023-02-13T15:22:59;95168.50;;;9.34;39.45
20037;BME280;10179;42.640;23.312;2023-02-13T15:25:30;95171.75;;;9.36;39.66
20037;BME280;10179;42.640;23.312;2023-02-13T15:27:58;95165.78;;;9.27;39.84
20037;BME280;10179;42.640;23.312;2023-02-13T15:30:29;95183.91;;;9.37;39.64
20037;BME280;10179;42.640;23.312;2023-02-13T15:33:00;95160.34;;;9.29;39.83
20037;BME280;10179;42.640;23.312;2023-02-13T15:35:31;95106.34;;;8.90;39.89
20037;BME280;10179;42.640;23.312;2023-02-13T15:37:58;95171.31;;;9.32;39.96
20037;BME280;10179;42.640;23.312;2023-02-13T15:40:30;95129.31;;;9.03;39.84
20037;BME280;10179;42.640;23.312;2023-02-13T15:42:57;95170.78;;;9.52;39.49
20037;BME280;10179;42.640;23.312;2023-02-13T15:45:25;95121.06;;;8.91;39.70
20037;BME280;10179;42.640;23.312;2023-02-13T15:47:51;95175.41;;;9.12;39.78
20037;BME280;10179;42.640;23.312;2023-02-13T15:50:28;95086.69;;;8.56;39.80
20037;BME280;10179;42.640;23.312;2023-02-13T15:52:55;95148.22;;;8.75;40.09
20037;BME280;10179;42.640;23.312;2023-02-13T15:55:23;95110.75;;;8.52;40.03
20037;BME280;10179;42.640;23.312;2023-02-13T15:57:50;95172.91;;;8.81;40.26
20037;BME280;10179;42.640;23.312;2023-02-13T16:00:23;95149.28;;;8.66;40.22
20037;BME280;10179;42.640;23.312;2023-02-13T16:02:50;95134.03;;;8.47;40.39
20037;BME280;10179;42.640;23.312;2023-02-13T16:05:17;95186.88;;;8.73;40.51